createdAt,value
2023-03-04T00:00:23.382Z,1008.6
2023-03-04T00:01:39.684Z,1008.5
2023-03-04T00:02:55.960Z,1008.5
2023-03-04T00:04:11.272Z,1008.5
2023-03-04T00:05:27.583Z,1008.5
2023-03-04T00:06:43.858Z,1008.5
2023-03-04T00:08:00.168Z,1008.5
2023-03-04T00:09:16.461Z,1008.5
2023-03-04T00:10:32.754Z,1008.5
2023-03-04T00:11:49.040Z,1008.5
2023-03-04T00:13:05.337Z,1008.5
2023-03-04T00:14:21.630Z,1008.5
2023-03-04T00:15:37.924Z,1008.5
2023-03-04T00:16:54.220Z,1008.5
2023-03-04T00:18:10.000Z,1008.5
2023-03-04T00:19:26.811Z,1008.5
2023-03-04T00:20:42.121Z,1008.5
2023-03-04T00:21:58.406Z,1008.4
2023-03-04T00:23:14.698Z,1008.5
2023-03-04T00:24:31.000Z,1008.4
2023-03-04T00:25:47.293Z,1008.4
2023-03-04T00:27:03.585Z,1008.4
2023-03-04T00:28:19.886Z,1008.4
2023-03-04T00:29:36.176Z,1008.4
2023-03-04T00:30:52.458Z,1008.5
2023-03-04T00:32:08.761Z,1008.4
2023-03-04T00:33:25.049Z,1008.4
2023-03-04T00:34:41.350Z,1008.4
2023-03-04T00:35:57.645Z,1008.3
2023-03-04T00:37:12.950Z,1008.4
2023-03-04T00:38:29.259Z,1008.5
2023-03-04T00:39:45.546Z,1008.4
2023-03-04T00:41:01.841Z,1008.4
2023-03-04T00:42:18.131Z,1008.4
2023-03-04T00:43:34.429Z,1008.4
2023-03-04T00:44:50.722Z,1008.4
2023-03-04T00:46:07.019Z,1008.3
2023-03-04T00:47:23.309Z,1008.3
2023-03-04T00:48:39.606Z,1008.3
2023-03-04T00:49:55.902Z,1008.3
2023-03-04T00:51:12.199Z,1008.3
2023-03-04T00:52:28.483Z,1008.3
2023-03-04T00:53:43.789Z,1008.3
2023-03-04T00:55:00.086Z,1008.4
2023-03-04T00:56:16.380Z,1008.3
2023-03-04T00:57:32.684Z,1008.4
2023-03-04T00:58:48.974Z,1008.3
2023-03-04T01:00:05.267Z,1008.3
2023-03-04T01:01:21.556Z,1008.3
2023-03-04T01:02:37.865Z,1008.4
2023-03-04T01:03:54.153Z,1008.4
2023-03-04T01:05:10.442Z,1008.4
2023-03-04T01:06:26.741Z,1008.5
2023-03-04T01:07:43.030Z,1008.4
2023-03-04T01:08:59.328Z,1008.4
2023-03-04T01:10:14.624Z,1008.3
2023-03-04T01:11:30.927Z,1008.4
2023-03-04T01:12:47.218Z,1008.4
2023-03-04T01:14:03.505Z,1008.4
2023-03-04T01:15:19.807Z,1008.3
2023-03-04T01:16:36.101Z,1008.3
2023-03-04T01:17:52.398Z,1008.3
2023-03-04T01:19:08.705Z,1008.3
2023-03-04T01:20:24.991Z,1008.2
2023-03-04T01:21:41.275Z,1008.2
2023-03-04T01:22:57.572Z,1008.2
2023-03-04T01:24:13.872Z,1008.2
2023-03-04T01:25:30.165Z,1008.1
2023-03-04T01:26:45.474Z,1008.1
2023-03-04T01:28:01.767Z,1008.1
2023-03-04T01:29:18.059Z,1008
2023-03-04T01:30:34.354Z,1008
2023-03-04T01:31:50.654Z,1008
2023-03-04T01:33:06.944Z,1008
2023-03-04T01:34:23.241Z,1007.9
2023-03-04T01:35:39.527Z,1008
2023-03-04T01:36:55.825Z,1007.9
2023-03-04T01:38:12.110Z,1007.9
2023-03-04T01:39:28.420Z,1008
2023-03-04T01:40:44.713Z,1008
2023-03-04T01:42:01.001Z,1007.9
2023-03-04T01:43:16.314Z,1007.9
2023-03-04T01:44:32.601Z,1007.9
2023-03-04T01:45:48.887Z,1007.8
2023-03-04T01:47:05.206Z,1007.7
2023-03-04T01:48:21.480Z,1007.7
2023-03-04T01:49:37.769Z,1007.7
2023-03-04T01:50:54.076Z,1007.6
2023-03-04T01:52:10.369Z,1007.6
2023-03-04T01:53:26.656Z,1007.6
2023-03-04T01:54:42.949Z,1007.6
2023-03-04T01:55:59.249Z,1007.6
2023-03-04T01:57:15.550Z,1007.6
2023-03-04T01:58:31.839Z,1007.5
2023-03-04T01:59:47.149Z,1007.6
2023-03-04T02:01:03.442Z,1007.5
2023-03-04T02:02:19.739Z,1007.4
2023-03-04T02:03:36.035Z,1007.4
2023-03-04T02:04:52.331Z,1007.5
2023-03-04T02:06:08.628Z,1007.4
2023-03-04T02:07:24.919Z,1007.4
2023-03-04T02:08:41.212Z,1007.4
2023-03-04T02:09:57.493Z,1007.4
2023-03-04T02:11:13.784Z,1007.4
2023-03-04T02:12:30.092Z,1007.4
2023-03-04T02:13:46.376Z,1007.4
2023-03-04T02:15:02.688Z,1007.4
2023-03-04T02:16:17.978Z,1007.5
2023-03-04T02:17:34.293Z,1007.4
2023-03-04T02:18:50.567Z,1007.4
2023-03-04T02:20:06.868Z,1007.4
2023-03-04T02:21:23.165Z,1007.4
2023-03-04T02:22:39.456Z,1007.4
2023-03-04T02:23:55.740Z,1007.4
2023-03-04T02:25:12.035Z,1007.4
2023-03-04T02:26:28.347Z,1007.4
2023-03-04T02:27:44.626Z,1007.4
2023-03-04T02:29:00.925Z,1007.4
2023-03-04T02:30:17.216Z,1007.4
2023-03-04T02:31:33.524Z,1007.5
2023-03-04T02:32:48.826Z,1007.4
2023-03-04T02:34:05.120Z,1007.4
2023-03-04T02:35:21.415Z,1007.3
2023-03-04T02:36:37.699Z,1007.4
2023-03-04T02:37:53.990Z,1007.4
2023-03-04T02:39:10.303Z,1007.3
2023-03-04T02:40:25.611Z,1007.3
2023-03-04T02:41:41.909Z,1007.3
2023-03-04T02:42:58.206Z,1007.3
2023-03-04T02:44:14.491Z,1007.3
2023-03-04T02:45:30.790Z,1007.2
2023-03-04T02:46:47.083Z,1007.3
2023-03-04T02:48:03.379Z,1007.2
2023-03-04T02:49:19.666Z,1007.2
2023-03-04T02:50:35.960Z,1007.2
2023-03-04T02:51:52.257Z,1007.1
2023-03-04T02:53:08.570Z,1007.2
2023-03-04T02:54:24.840Z,1007.1
2023-03-04T02:55:41.138Z,1007.1
2023-03-04T02:56:56.457Z,1007
2023-03-04T02:58:12.738Z,1007.1
2023-03-04T02:59:29.044Z,1007
2023-03-04T03:00:45.339Z,1007
2023-03-04T03:02:01.625Z,1007
2023-03-04T03:03:17.928Z,1007
2023-03-04T03:04:34.211Z,1007
2023-03-04T03:05:50.500Z,1007
2023-03-04T03:07:06.791Z,1007
2023-03-04T03:08:23.090Z,1007
2023-03-04T03:09:39.382Z,1007
2023-03-04T03:10:55.693Z,1007
2023-03-04T03:12:11.973Z,1007
2023-03-04T03:13:27.279Z,1006.9
2023-03-04T03:14:43.585Z,1007
2023-03-04T03:15:59.885Z,1007
2023-03-04T03:17:16.171Z,1007
2023-03-04T03:18:32.464Z,1007
2023-03-04T03:19:48.752Z,1007
2023-03-04T03:21:05.054Z,1007
2023-03-04T03:22:21.346Z,1007
2023-03-04T03:23:37.645Z,1007
2023-03-04T03:24:53.936Z,1007
2023-03-04T03:26:10.240Z,1007
2023-03-04T03:27:26.522Z,1006.9
2023-03-04T03:28:42.810Z,1006.9
2023-03-04T03:29:58.132Z,1006.9
2023-03-04T03:31:14.427Z,1006.9
2023-03-04T03:32:30.718Z,1006.9
2023-03-04T03:33:47.012Z,1006.8
2023-03-04T03:35:03.294Z,1006.9
2023-03-04T03:36:19.584Z,1006.9
2023-03-04T03:37:35.894Z,1006.9
2023-03-04T03:38:52.179Z,1006.9
2023-03-04T03:40:08.484Z,1006.9
2023-03-04T03:41:24.768Z,1006.9
2023-03-04T03:42:41.068Z,1006.8
2023-03-04T03:43:57.358Z,1006.9
2023-03-04T03:45:13.648Z,1006.8
2023-03-04T03:46:28.970Z,1006.8
2023-03-04T03:47:45.274Z,1006.9
2023-03-04T03:49:01.552Z,1006.8
2023-03-04T03:50:17.834Z,1006.8
2023-03-04T03:51:34.154Z,1006.8
2023-03-04T03:52:50.433Z,1006.8
2023-03-04T03:54:06.735Z,1006.9
2023-03-04T03:55:23.009Z,1006.9
2023-03-04T03:56:39.309Z,1006.9
2023-03-04T03:57:55.598Z,1006.8
2023-03-04T03:59:11.900Z,1006.8
2023-03-04T04:00:28.199Z,1006.7
2023-03-04T04:01:44.511Z,1006.7
2023-03-04T04:02:59.789Z,1006.7
2023-03-04T04:04:16.100Z,1006.7
2023-03-04T04:05:32.383Z,1006.8
2023-03-04T04:06:48.690Z,1006.7
2023-03-04T04:08:04.979Z,1006.8
2023-03-04T04:09:21.261Z,1006.7
2023-03-04T04:10:37.564Z,1006.7
2023-03-04T04:11:53.847Z,1006.8
2023-03-04T04:13:10.148Z,1006.8
2023-03-04T04:14:26.446Z,1006.7
2023-03-04T04:15:42.754Z,1006.7
2023-03-04T04:16:59.033Z,1006.7
2023-03-04T04:18:15.321Z,1006.7
2023-03-04T04:19:30.630Z,1006.7
2023-03-04T04:20:46.943Z,1006.7
2023-03-04T04:22:03.238Z,1006.7
2023-03-04T04:23:19.535Z,1006.7
2023-03-04T04:24:35.820Z,1006.7
2023-03-04T04:25:52.109Z,1006.7
2023-03-04T04:27:08.417Z,1006.7
2023-03-04T04:28:24.691Z,1006.7
2023-03-04T04:29:40.978Z,1006.8
2023-03-04T04:30:57.284Z,1006.8
2023-03-04T04:32:13.591Z,1006.7
2023-03-04T04:33:29.874Z,1006.8
2023-03-04T04:34:46.170Z,1006.7
2023-03-04T04:36:01.469Z,1006.7
2023-03-04T04:37:17.763Z,1006.7
2023-03-04T04:38:34.069Z,1006.7
2023-03-04T04:39:50.363Z,1006.7
2023-03-04T04:41:06.664Z,1006.7
2023-03-04T04:42:22.965Z,1006.7
2023-03-04T04:43:39.251Z,1006.7
2023-03-04T04:44:55.523Z,1006.7
2023-03-04T04:46:11.832Z,1006.6
2023-03-04T04:47:28.111Z,1006.7
2023-03-04T04:48:44.403Z,1006.6
2023-03-04T04:50:00.723Z,1006.6
2023-03-04T04:51:16.994Z,1006.6
2023-03-04T04:52:32.319Z,1006.6
2023-03-04T04:53:48.610Z,1006.6
2023-03-04T04:55:04.903Z,1006.6
2023-03-04T04:56:21.189Z,1006.6
2023-03-04T04:57:37.492Z,1006.6
2023-03-04T04:58:53.774Z,1006.6
2023-03-04T05:00:10.075Z,1006.6
2023-03-04T05:01:26.361Z,1006.6
2023-03-04T05:02:42.657Z,1006.6
2023-03-04T05:03:58.963Z,1006.5
2023-03-04T05:05:15.258Z,1006.6
2023-03-04T05:06:31.554Z,1006.6
2023-03-04T05:07:47.844Z,1006.5
2023-03-04T05:09:03.156Z,1006.6
2023-03-04T05:10:19.446Z,1006.5
2023-03-04T05:11:35.733Z,1006.5
2023-03-04T05:12:52.024Z,1006.5
2023-03-04T05:14:08.330Z,1006.6
2023-03-04T05:15:24.632Z,1006.6
2023-03-04T05:16:40.919Z,1006.6
2023-03-04T05:17:57.198Z,1006.6
2023-03-04T05:19:13.492Z,1006.5
2023-03-04T05:20:29.799Z,1006.5
2023-03-04T05:21:46.095Z,1006.5
2023-03-04T05:23:02.390Z,1006.5
2023-03-04T05:24:18.684Z,1006.5
2023-03-04T05:25:33.936Z,1006.4
2023-03-04T05:26:50.226Z,1006.4
2023-03-04T05:28:06.519Z,1006.5
2023-03-04T05:29:22.779Z,1006.4
2023-03-04T05:30:39.017Z,1006.4
2023-03-04T05:31:55.302Z,1006.4
2023-03-04T05:33:11.609Z,1006.3
2023-03-04T05:34:27.845Z,1006.4
2023-03-04T05:35:44.097Z,1006.4
2023-03-04T05:37:00.338Z,1006.4
2023-03-04T05:38:16.646Z,1006.4
2023-03-04T05:39:32.940Z,1006.4
2023-03-04T05:40:49.191Z,1006.4
2023-03-04T05:42:04.445Z,1006.4
2023-03-04T05:43:20.687Z,1006.4
2023-03-04T05:44:36.911Z,1006.3
2023-03-04T05:45:53.168Z,1006.3
2023-03-04T05:47:09.398Z,1006.2
2023-03-04T05:48:25.653Z,1006.2
2023-03-04T05:49:41.869Z,1006.2
2023-03-04T05:50:58.119Z,1006.3
2023-03-04T05:52:14.376Z,1006.3
2023-03-04T05:53:30.603Z,1006.2
2023-03-04T05:54:46.831Z,1006.2
2023-03-04T05:56:03.070Z,1006.2
2023-03-04T05:57:19.330Z,1006.3
2023-03-04T05:58:34.578Z,1006.2
2023-03-04T05:59:50.813Z,1006.2
2023-03-04T06:01:07.058Z,1006.2
2023-03-04T06:02:23.303Z,1006.2
2023-03-04T06:03:39.541Z,1006.2
2023-03-04T06:04:55.766Z,1006.2
2023-03-04T06:06:12.023Z,1006.3
2023-03-04T06:07:28.267Z,1006.3
2023-03-04T06:08:44.504Z,1006.2
2023-03-04T06:10:00.732Z,1006.3
2023-03-04T06:11:16.977Z,1006.3
2023-03-04T06:12:33.217Z,1006.4
2023-03-04T06:13:49.447Z,1006.4
2023-03-04T06:15:04.707Z,1006.3
2023-03-04T06:16:20.963Z,1006.3
2023-03-04T06:17:37.196Z,1006.4
2023-03-04T06:18:53.432Z,1006.4
2023-03-04T06:20:09.693Z,1006.4
2023-03-04T06:21:25.921Z,1006.4
2023-03-04T06:22:42.160Z,1006.3
2023-03-04T06:23:58.390Z,1006.3
2023-03-04T06:25:14.645Z,1006.4
2023-03-04T06:26:30.875Z,1006.3
2023-03-04T06:27:47.118Z,1006.4
2023-03-04T06:29:03.347Z,1006.4
2023-03-04T06:30:19.602Z,1006.4
2023-03-04T06:31:34.844Z,1006.4
2023-03-04T06:32:51.098Z,1006.4
2023-03-04T06:34:07.324Z,1006.3
2023-03-04T06:35:23.585Z,1006.4
2023-03-04T06:36:39.812Z,1006.3
2023-03-04T06:37:56.048Z,1006.3
2023-03-04T06:39:12.283Z,1006.4
2023-03-04T06:40:28.517Z,1006.4
2023-03-04T06:41:44.776Z,1006.4
2023-03-04T06:43:01.018Z,1006.4
2023-03-04T06:44:17.243Z,1006.4
2023-03-04T06:45:33.489Z,1006.4
2023-03-04T06:46:49.734Z,1006.3
2023-03-04T06:48:04.988Z,1006.4
2023-03-04T06:49:21.234Z,1006.3
2023-03-04T06:50:37.470Z,1006.3
2023-03-04T06:51:53.711Z,1006.4
2023-03-04T06:53:09.943Z,1006.3
2023-03-04T06:54:26.198Z,1006.4
2023-03-04T06:55:41.465Z,1006.4
2023-03-04T06:56:57.705Z,1006.4
2023-03-04T06:58:13.934Z,1006.4
2023-03-04T06:59:30.155Z,1006.4
2023-03-04T07:00:46.399Z,1006.4
2023-03-04T07:02:02.653Z,1006.4
2023-03-04T07:03:18.876Z,1006.3
2023-03-04T07:04:35.122Z,1006.4
2023-03-04T07:05:51.378Z,1006.3
2023-03-04T07:07:07.611Z,1006.3
2023-03-04T07:08:23.868Z,1006.3
2023-03-04T07:09:40.105Z,1006.4
2023-03-04T07:10:56.316Z,1006.4
2023-03-04T07:12:11.592Z,1006.4
2023-03-04T07:13:27.825Z,1006.4
2023-03-04T07:14:44.067Z,1006.4
2023-03-04T07:16:00.299Z,1006.4
2023-03-04T07:17:16.547Z,1006.4
2023-03-04T07:18:32.773Z,1006.5
2023-03-04T07:19:49.012Z,1006.4
2023-03-04T07:21:05.260Z,1006.3
2023-03-04T07:22:21.490Z,1006.3
2023-03-04T07:23:37.751Z,1006.3
2023-03-04T07:24:54.001Z,1006.4
2023-03-04T07:26:10.209Z,1006.4
2023-03-04T07:27:26.469Z,1006.4
2023-03-04T07:28:41.707Z,1006.4
2023-03-04T07:29:57.949Z,1006.4
2023-03-04T07:31:14.197Z,1006.4
2023-03-04T07:32:30.443Z,1006.4
2023-03-04T07:33:46.676Z,1006.5
2023-03-04T07:35:02.924Z,1006.4
2023-03-04T07:36:19.161Z,1006.4
2023-03-04T07:37:35.401Z,1006.5
2023-03-04T07:38:51.641Z,1006.4
2023-03-04T07:40:07.880Z,1006.4
2023-03-04T07:41:24.122Z,1006.5
2023-03-04T07:42:40.347Z,1006.4
2023-03-04T07:43:56.599Z,1006.5
2023-03-04T07:45:11.860Z,1006.5
2023-03-04T07:46:28.096Z,1006.4
2023-03-04T07:47:44.340Z,1006.4
2023-03-04T07:49:00.563Z,1006.5
2023-03-04T07:50:16.810Z,1006.5
2023-03-04T07:51:33.045Z,1006.5
2023-03-04T07:52:49.303Z,1006.4
2023-03-04T07:54:05.525Z,1006.4
2023-03-04T07:55:21.784Z,1006.5
2023-03-04T07:56:38.003Z,1006.4
2023-03-04T07:57:54.263Z,1006.4
2023-03-04T07:59:10.495Z,1006.4
2023-03-04T08:00:26.736Z,1006.4
2023-03-04T08:01:41.985Z,1006.4
2023-03-04T08:02:58.237Z,1006.4
2023-03-04T08:04:14.475Z,1006.4
2023-03-04T08:05:30.714Z,1006.4
2023-03-04T08:06:46.953Z,1006.4
2023-03-04T08:08:03.198Z,1006.4
2023-03-04T08:09:19.437Z,1006.4
2023-03-04T08:10:35.673Z,1006.3
2023-03-04T08:11:51.915Z,1006.3
2023-03-04T08:13:08.152Z,1006.3
2023-03-04T08:14:24.400Z,1006.3
2023-03-04T08:15:40.633Z,1006.3
2023-03-04T08:16:56.856Z,1006.3
2023-03-04T08:18:12.120Z,1006.3
2023-03-04T08:19:28.356Z,1006.3
2023-03-04T08:20:44.606Z,1006.4
2023-03-04T08:22:00.845Z,1006.3
2023-03-04T08:23:17.082Z,1006.2
2023-03-04T08:24:33.313Z,1006.3
2023-03-04T08:25:49.563Z,1006.3
2023-03-04T08:27:05.790Z,1006.2
2023-03-04T08:28:22.030Z,1006.2
2023-03-04T08:29:38.278Z,1006.3
2023-03-04T08:30:54.513Z,1006.2
2023-03-04T08:32:10.749Z,1006.3
2023-03-04T08:33:26.992Z,1006.2
2023-03-04T08:34:42.247Z,1006.3
2023-03-04T08:35:58.500Z,1006.2
2023-03-04T08:37:14.729Z,1006.2
2023-03-04T08:38:30.970Z,1006.2
2023-03-04T08:39:47.207Z,1006.2
2023-03-04T08:41:03.447Z,1006.3
2023-03-04T08:42:19.695Z,1006.1
2023-03-04T08:43:35.933Z,1006.2
2023-03-04T08:44:52.164Z,1006.1
2023-03-04T08:46:08.408Z,1006.1
2023-03-04T08:47:24.652Z,1006.2
2023-03-04T08:48:40.898Z,1006.3
2023-03-04T08:49:57.125Z,1006.2
2023-03-04T08:51:12.384Z,1006.2
2023-03-04T08:52:28.620Z,1006.2
2023-03-04T08:53:44.861Z,1006.1
2023-03-04T08:55:01.113Z,1006.1
2023-03-04T08:56:17.352Z,1006.1
2023-03-04T08:57:33.587Z,1006.1
2023-03-04T08:58:49.830Z,1006.1
2023-03-04T09:00:06.061Z,1006.1
2023-03-04T09:01:22.310Z,1006.1
2023-03-04T09:02:38.546Z,1006.1
2023-03-04T09:03:54.796Z,1006.1
2023-03-04T09:05:11.024Z,1006.1
2023-03-04T09:06:27.269Z,1006.1
2023-03-04T09:07:42.531Z,1006.1
2023-03-04T09:08:58.756Z,1006.1
2023-03-04T09:10:15.005Z,1006.1
2023-03-04T09:11:31.240Z,1006
2023-03-04T09:12:47.476Z,1006.1
2023-03-04T09:14:03.719Z,1006
2023-03-04T09:15:19.954Z,1006
2023-03-04T09:16:36.212Z,1006
2023-03-04T09:17:52.441Z,1006
2023-03-04T09:19:08.693Z,1006.1
2023-03-04T09:20:24.931Z,1006
2023-03-04T09:21:41.162Z,1006
2023-03-04T09:22:57.396Z,1006
2023-03-04T09:24:12.656Z,1006.1
2023-03-04T09:25:28.888Z,1006.1
2023-03-04T09:26:45.140Z,1006.1
2023-03-04T09:28:01.372Z,1006.1
2023-03-04T09:29:17.622Z,1006.1
2023-03-04T09:30:33.868Z,1006
2023-03-04T09:31:50.095Z,1006.1
2023-03-04T09:33:06.340Z,1006.1
2023-03-04T09:34:22.577Z,1006.1
2023-03-04T09:35:38.821Z,1006
2023-03-04T09:36:55.066Z,1006.1
2023-03-04T09:38:11.307Z,1006
2023-03-04T09:39:27.542Z,1006.1
2023-03-04T09:40:42.785Z,1006
2023-03-04T09:41:59.030Z,1006
2023-03-04T09:43:15.274Z,1006
2023-03-04T09:44:31.507Z,1006
2023-03-04T09:45:47.755Z,1006
2023-03-04T09:47:04.002Z,1006
2023-03-04T09:48:20.238Z,1005.9
2023-03-04T09:49:36.463Z,1005.9
2023-03-04T09:50:52.705Z,1005.9
2023-03-04T09:52:08.950Z,1005.9
2023-03-04T09:53:25.200Z,1005.9
2023-03-04T09:54:41.421Z,1006
2023-03-04T09:55:57.665Z,1005.9
2023-03-04T09:57:12.923Z,1005.9
2023-03-04T09:58:29.157Z,1006
2023-03-04T09:59:45.399Z,1005.8
2023-03-04T10:01:01.647Z,1005.8
2023-03-04T10:02:17.883Z,1005.7
2023-03-04T10:03:34.117Z,1005.8
2023-03-04T10:04:50.376Z,1005.8
2023-03-04T10:06:06.608Z,1005.8
2023-03-04T10:07:22.842Z,1005.8
2023-03-04T10:08:39.074Z,1005.8
2023-03-04T10:09:55.334Z,1005.7
2023-03-04T10:11:11.560Z,1005.8
2023-03-04T10:12:27.803Z,1005.8
2023-03-04T10:13:43.061Z,1005.7
2023-03-04T10:14:59.301Z,1005.7
2023-03-04T10:16:15.533Z,1005.8
2023-03-04T10:17:31.785Z,1005.7
2023-03-04T10:18:48.027Z,1005.6
2023-03-04T10:20:04.264Z,1005.7
2023-03-04T10:21:20.501Z,1005.7
2023-03-04T10:22:36.740Z,1005.7
2023-03-04T10:23:52.982Z,1005.7
2023-03-04T10:25:09.215Z,1005.7
2023-03-04T10:26:25.451Z,1005.7
2023-03-04T10:27:41.695Z,1005.6
2023-03-04T10:28:57.932Z,1005.7
2023-03-04T10:30:13.185Z,1005.7
2023-03-04T10:31:29.434Z,1005.6
2023-03-04T10:32:45.667Z,1005.7
2023-03-04T10:34:01.910Z,1005.6
2023-03-04T10:35:18.163Z,1005.6
2023-03-04T10:36:34.391Z,1005.6
2023-03-04T10:37:50.631Z,1005.6
2023-03-04T10:39:06.869Z,1005.6
2023-03-04T10:40:23.113Z,1005.6
2023-03-04T10:41:39.351Z,1005.6
2023-03-04T10:42:55.582Z,1005.5
2023-03-04T10:44:11.838Z,1005.5
2023-03-04T10:45:28.070Z,1005.6
2023-03-04T10:46:43.332Z,1005.5
2023-03-04T10:47:59.562Z,1005.6
2023-03-04T10:49:15.807Z,1005.5
2023-03-04T10:50:32.055Z,1005.4
2023-03-04T10:51:48.295Z,1005.5
2023-03-04T10:53:04.518Z,1005.5
2023-03-04T10:54:20.762Z,1005.5
2023-03-04T10:55:37.005Z,1005.5
2023-03-04T10:56:53.236Z,1005.5
2023-03-04T10:58:09.488Z,1005.5
2023-03-04T10:59:25.718Z,1005.5
2023-03-04T11:00:41.958Z,1005.5
2023-03-04T11:01:58.199Z,1005.5
2023-03-04T11:03:13.459Z,1005.5
2023-03-04T11:04:29.693Z,1005.5
2023-03-04T11:05:45.943Z,1005.5
2023-03-04T11:07:02.184Z,1005.5
2023-03-04T11:08:18.418Z,1005.4
2023-03-04T11:09:34.653Z,1005.4
2023-03-04T11:10:49.916Z,1005.4
2023-03-04T11:12:06.162Z,1005.5
2023-03-04T11:13:22.392Z,1005.3
2023-03-04T11:14:38.628Z,1005.4
2023-03-04T11:15:54.886Z,1005.4
2023-03-04T11:17:11.122Z,1005.4
2023-03-04T11:18:27.363Z,1005.3
2023-03-04T11:19:43.588Z,1005.4
2023-03-04T11:20:59.829Z,1005.3
2023-03-04T11:22:16.065Z,1005.4
2023-03-04T11:23:32.324Z,1005.4
2023-03-04T11:24:48.000Z,1005.3
2023-03-04T11:26:04.799Z,1005.3
2023-03-04T11:27:20.048Z,1005.3
2023-03-04T11:28:36.282Z,1005.3
2023-03-04T11:29:52.540Z,1005.4
2023-03-04T11:31:08.761Z,1005.4
2023-03-04T11:32:25.005Z,1005.3
2023-03-04T11:33:41.247Z,1005.4
2023-03-04T11:34:57.494Z,1005.3
2023-03-04T11:36:13.717Z,1005.3
2023-03-04T11:37:29.960Z,1005.3
2023-03-04T11:38:46.215Z,1005.3
2023-03-04T11:40:02.452Z,1005.4
2023-03-04T11:41:18.689Z,1005.4
2023-03-04T11:42:34.919Z,1005.4
2023-03-04T11:43:50.177Z,1005.4
2023-03-04T11:45:06.426Z,1005.4
2023-03-04T11:46:22.662Z,1005.4
2023-03-04T11:47:38.913Z,1005.3
2023-03-04T11:48:55.131Z,1005.4
2023-03-04T11:50:11.378Z,1005.4
2023-03-04T11:51:27.615Z,1005.3
2023-03-04T11:52:43.866Z,1005.3
2023-03-04T11:54:00.105Z,1005.2
2023-03-04T11:55:16.347Z,1005.2
2023-03-04T11:56:32.569Z,1005.3
2023-03-04T11:57:48.812Z,1005.2
2023-03-04T11:59:05.064Z,1005.2
2023-03-04T12:00:20.314Z,1005.1
2023-03-04T12:01:36.543Z,1005.1
2023-03-04T12:02:52.783Z,1005.1
2023-03-04T12:04:09.026Z,1005.1
2023-03-04T12:05:25.280Z,1005
2023-03-04T12:06:41.505Z,1005.1
2023-03-04T12:07:57.742Z,1005
2023-03-04T12:09:13.983Z,1005
2023-03-04T12:10:30.222Z,1005.1
2023-03-04T12:11:46.471Z,1005
2023-03-04T12:13:02.706Z,1005
2023-03-04T12:14:18.964Z,1005
2023-03-04T12:15:35.197Z,1005
2023-03-04T12:16:50.453Z,1005
2023-03-04T12:18:06.683Z,1005
2023-03-04T12:19:22.926Z,1004.9
2023-03-04T12:20:39.156Z,1004.9
2023-03-04T12:21:55.398Z,1004.9
2023-03-04T12:23:11.643Z,1004.9
2023-03-04T12:24:27.882Z,1004.8
2023-03-04T12:25:44.123Z,1004.8
2023-03-04T12:27:00.000Z,1004.9
2023-03-04T12:28:16.602Z,1004.8
2023-03-04T12:29:32.838Z,1004.8
2023-03-04T12:30:49.078Z,1004.8
2023-03-04T12:32:05.323Z,1004.7
2023-03-04T12:33:20.575Z,1004.7
2023-03-04T12:34:36.821Z,1004.7
2023-03-04T12:35:53.054Z,1004.7
2023-03-04T12:37:09.296Z,1004.7
2023-03-04T12:38:25.536Z,1004.8
2023-03-04T12:39:41.788Z,1004.7
2023-03-04T12:40:58.015Z,1004.6
2023-03-04T12:42:14.262Z,1004.7
2023-03-04T12:43:30.492Z,1004.7
2023-03-04T12:44:46.730Z,1004.7
2023-03-04T12:46:02.977Z,1004.7
2023-03-04T12:47:19.215Z,1004.7
2023-03-04T12:48:35.444Z,1004.7
2023-03-04T12:49:50.712Z,1004.6
2023-03-04T12:51:06.955Z,1004.6
2023-03-04T12:52:23.183Z,1004.6
2023-03-04T12:53:39.426Z,1004.6
2023-03-04T12:54:55.660Z,1004.5
2023-03-04T12:56:11.913Z,1004.5
2023-03-04T12:57:28.147Z,1004.5
2023-03-04T12:58:44.387Z,1004.6
2023-03-04T13:00:00.621Z,1004.6
2023-03-04T13:01:16.859Z,1004.6
2023-03-04T13:02:33.111Z,1004.6
2023-03-04T13:03:49.342Z,1004.4
2023-03-04T13:05:05.583Z,1004.5
2023-03-04T13:06:20.838Z,1004.6
2023-03-04T13:07:37.081Z,1004.5
2023-03-04T13:08:53.315Z,1004.6
2023-03-04T13:10:09.557Z,1004.5
2023-03-04T13:11:25.798Z,1004.5
2023-03-04T13:12:42.044Z,1004.6
2023-03-04T13:13:58.281Z,1004.5
2023-03-04T13:15:14.512Z,1004.5
2023-03-04T13:16:30.000Z,1004.5
2023-03-04T13:17:47.005Z,1004.4
2023-03-04T13:19:03.245Z,1004.5
2023-03-04T13:20:19.468Z,1004.5
2023-03-04T13:21:35.726Z,1004.5
2023-03-04T13:22:50.972Z,1004.5
2023-03-04T13:24:07.208Z,1004.5
2023-03-04T13:25:23.443Z,1004.6
2023-03-04T13:26:39.691Z,1004.5
2023-03-04T13:27:55.927Z,1004.6
2023-03-04T13:29:12.168Z,1004.6
2023-03-04T13:30:28.419Z,1004.5
2023-03-04T13:31:44.643Z,1004.5
2023-03-04T13:33:00.884Z,1004.6
2023-03-04T13:34:17.136Z,1004.6
2023-03-04T13:35:33.375Z,1004.5
2023-03-04T13:36:49.611Z,1004.4
2023-03-04T13:38:05.847Z,1004.4
2023-03-04T13:39:21.104Z,1004.4
2023-03-04T13:40:37.340Z,1004.5
2023-03-04T13:41:53.577Z,1004.4
2023-03-04T13:43:09.831Z,1004.3
2023-03-04T13:44:26.068Z,1004.4
2023-03-04T13:45:42.301Z,1004.4
2023-03-04T13:46:58.553Z,1004.4
2023-03-04T13:48:14.773Z,1004.3
2023-03-04T13:49:31.026Z,1004.4
2023-03-04T13:50:47.253Z,1004.3
2023-03-04T13:52:03.498Z,1004.3
2023-03-04T13:53:19.733Z,1004.3
2023-03-04T13:54:35.981Z,1004.4
2023-03-04T13:55:51.243Z,1004.3
2023-03-04T13:57:07.477Z,1004.3
2023-03-04T13:58:23.714Z,1004.3
2023-03-04T13:59:39.953Z,1004.3
2023-03-04T14:00:56.203Z,1004.3
2023-03-04T14:02:12.427Z,1004.4
2023-03-04T14:03:28.664Z,1004.3
2023-03-04T14:04:44.924Z,1004.3
2023-03-04T14:06:01.149Z,1004.4
2023-03-04T14:07:17.398Z,1004.3
2023-03-04T14:08:33.633Z,1004.3
2023-03-04T14:09:49.870Z,1004.4
2023-03-04T14:11:06.123Z,1004.4
2023-03-04T14:12:21.361Z,1004.4
2023-03-04T14:13:37.603Z,1004.4
2023-03-04T14:14:53.841Z,1004.4
2023-03-04T14:16:10.081Z,1004.3
2023-03-04T14:17:26.317Z,1004.4
2023-03-04T14:18:42.574Z,1004.3
2023-03-04T14:19:58.796Z,1004.4
2023-03-04T14:21:15.051Z,1004.4
2023-03-04T14:22:31.292Z,1004.3
2023-03-04T14:23:47.527Z,1004.4
2023-03-04T14:25:03.757Z,1004.3
2023-03-04T14:26:19.996Z,1004.3
2023-03-04T14:27:36.246Z,1004.3
2023-03-04T14:28:51.493Z,1004.3
2023-03-04T14:30:07.746Z,1004.3
2023-03-04T14:31:23.979Z,1004.3
2023-03-04T14:32:40.219Z,1004.4
2023-03-04T14:33:56.466Z,1004.4
2023-03-04T14:35:12.693Z,1004.3
2023-03-04T14:36:28.952Z,1004.2
2023-03-04T14:37:45.179Z,1004.3
2023-03-04T14:39:01.422Z,1004.3
2023-03-04T14:40:17.659Z,1004.1
2023-03-04T14:41:33.899Z,1004.2
2023-03-04T14:42:50.129Z,1004.2
2023-03-04T14:44:06.390Z,1004.1
2023-03-04T14:45:21.641Z,1004.2
2023-03-04T14:46:37.869Z,1004.1
2023-03-04T14:47:54.114Z,1004.2
2023-03-04T14:49:10.342Z,1004.2
2023-03-04T14:50:26.584Z,1004.1
2023-03-04T14:51:42.833Z,1004.1
2023-03-04T14:52:59.061Z,1004.1
2023-03-04T14:54:15.301Z,1004.1
2023-03-04T14:55:31.554Z,1004.1
2023-03-04T14:56:47.784Z,1004
2023-03-04T14:58:04.020Z,1004.1
2023-03-04T14:59:20.283Z,1004
2023-03-04T15:00:36.510Z,1004
2023-03-04T15:01:51.757Z,1004
2023-03-04T15:03:08.013Z,1004
2023-03-04T15:04:24.240Z,1004
2023-03-04T15:05:40.500Z,1004
2023-03-04T15:06:56.715Z,1003.9
2023-03-04T15:08:12.960Z,1004
2023-03-04T15:09:29.192Z,1004
2023-03-04T15:10:45.451Z,1004.1
2023-03-04T15:12:01.674Z,1004
2023-03-04T15:13:17.927Z,1004.1
2023-03-04T15:14:34.164Z,1004.1
2023-03-04T15:15:50.407Z,1004.1
2023-03-04T15:17:06.637Z,1004.1
2023-03-04T15:18:21.891Z,1004.1
2023-03-04T15:19:38.135Z,1004.1
2023-03-04T15:20:54.378Z,1004
2023-03-04T15:22:10.612Z,1004
2023-03-04T15:23:26.872Z,1004
2023-03-04T15:24:43.102Z,1004
2023-03-04T15:25:58.354Z,1004
2023-03-04T15:27:14.597Z,1004
2023-03-04T15:28:30.831Z,1004
2023-03-04T15:29:47.071Z,1004
2023-03-04T15:31:03.308Z,1004
2023-03-04T15:32:19.557Z,1004
2023-03-04T15:33:35.792Z,1004.1
2023-03-04T15:34:52.032Z,1004
2023-03-04T15:36:08.281Z,1004.1
2023-03-04T15:37:24.503Z,1004
2023-03-04T15:38:40.754Z,1004.1
2023-03-04T15:39:56.986Z,1004.1
2023-03-04T15:41:13.238Z,1004.1
2023-03-04T15:42:28.484Z,1004.1
2023-03-04T15:43:44.727Z,1004.1
2023-03-04T15:45:00.962Z,1004.1
2023-03-04T15:46:17.218Z,1004
2023-03-04T15:47:33.453Z,1004.1
2023-03-04T15:48:49.694Z,1004
2023-03-04T15:50:05.933Z,1004.2
2023-03-04T15:51:22.167Z,1004.1
2023-03-04T15:52:38.395Z,1004.1
2023-03-04T15:53:54.634Z,1004.2
2023-03-04T15:55:10.888Z,1004.1
2023-03-04T15:56:27.122Z,1004.1